ADDS METAR Data

Data at: 0745 UTC 24 Oct 2017

METAR for:K1P1 (Plymouth Muni, NH, US)
Text:K1P1 240735Z AUTO 00000KT 10SM SCT008 OVC014 15/14 A3006 RMK AO2 T01530142
Temperature: 15.3°C ( 60°F)
Dewpoint: 14.2°C ( 58°F) [RH = 93%]
Pressure (altimeter):30.06 inches Hg (1018.0 mb)
Winds:calm
Visibility:10 or more sm (16+ km)
Ceiling:1400 feet AGL
Clouds: scattered clouds at 800 feet AGL, overcast cloud deck at 1400 feet AGL
QC Flag:automated observation with no human augmentation